Time;durP1;ratioP1;P1;durP2;ratioP2;P2;SDS_P1;SDS_P2;PMS_P1;PMS_P2;Temp;Humidity;BMP_temperature;BMP_pressure;BME280_temperature;BME280_humidity;BME280_pressure;Samples;Min_cycle;Max_cycle;Signal;HPM_P1;HPM_P2
2023/04/17 00:00:49;;;;;;;12.70;8.88;;;13.70;99.90;;;;;;5051437;28;20479;-76
2023/04/17 00:03:15;;;;;;;10.02;8.68;;;13.80;99.90;;;;;;5051760;28;20025;-75
2023/04/17 00:05:44;;;;;;;10.43;8.38;;;13.70;99.90;;;;;;5051764;28;20033;-76
2023/04/17 00:08:11;;;;;;;11.00;9.20;;;13.70;99.90;;;;;;5051567;28;20037;-76
2023/04/17 00:10:37;;;;;;;11.48;8.60;;;13.80;99.90;;;;;;5051160;28;20037;-76
2023/04/17 00:13:03;;;;;;;10.73;8.65;;;13.90;99.90;;;;;;5050473;28;20048;-76
2023/04/17 00:15:29;;;;;;;11.85;8.35;;;13.90;99.90;;;;;;5049414;28;20033;-76
2023/04/17 00:17:55;;;;;;;9.48;8.57;;;13.60;99.90;;;;;;5052308;28;20487;-75
2023/04/17 00:20:21;;;;;;;11.57;8.68;;;13.60;99.90;;;;;;5051815;28;20037;-76
2023/04/17 00:22:47;;;;;;;13.18;9.10;;;13.60;99.90;;;;;;5050606;28;20514;-76
2023/04/17 00:25:13;;;;;;;11.70;8.90;;;13.50;99.90;;;;;;5049929;28;20036;-76
2023/04/17 00:27:43;;;;;;;11.15;9.07;;;13.50;99.90;;;;;;5048922;28;20036;-76
2023/04/17 00:30:09;;;;;;;11.10;8.52;;;13.40;99.90;;;;;;5050874;28;20048;-75
2023/04/17 00:32:35;;;;;;;14.30;8.40;;;13.30;99.90;;;;;;5036022;28;20032;-76
2023/04/17 00:35:01;;;;;;;9.85;8.85;;;13.30;99.90;;;;;;5047187;28;20415;-76
2023/04/17 00:37:27;;;;;;;12.07;8.65;;;13.40;99.90;;;;;;5042491;28;20534;-76
2023/04/17 00:39:53;;;;;;;10.80;8.80;;;13.50;99.90;;;;;;5051244;28;20029;-76
2023/04/17 00:42:19;;;;;;;10.23;8.70;;;13.50;99.90;;;;;;5050733;28;20028;-76
2023/04/17 00:44:46;;;;;;;10.43;8.93;;;13.40;99.90;;;;;;5049335;28;20033;-76
2023/04/17 00:47:12;;;;;;;10.95;8.98;;;13.30;99.90;;;;;;5050163;28;20041;-76
2023/04/17 00:49:38;;;;;;;9.80;8.60;;;13.40;99.90;;;;;;5050010;28;20028;-76
2023/04/17 00:52:04;;;;;;;11.20;9.45;;;13.50;99.90;;;;;;5051381;28;20053;-76
2023/04/17 00:54:30;;;;;;;10.02;8.82;;;13.50;99.90;;;;;;5050195;28;20391;-76
2023/04/17 00:56:57;;;;;;;12.32;9.10;;;13.50;99.90;;;;;;5050738;28;20036;-76
2023/04/17 00:59:23;;;;;;;10.20;9.13;;;13.40;99.90;;;;;;5050704;28;20036;-76
2023/04/17 01:01:49;;;;;;;10.43;8.88;;;13.50;99.90;;;;;;5049415;28;20041;-76
2023/04/17 01:04:15;;;;;;;10.95;8.57;;;13.50;99.90;;;;;;5049876;28;20033;-76
2023/04/17 01:06:41;;;;;;;11.18;9.40;;;13.50;99.90;;;;;;5049759;28;20044;-76
2023/04/17 01:09:07;;;;;;;11.02;9.23;;;13.50;99.90;;;;;;5050596;28;20040;-76
2023/04/17 01:11:33;;;;;;;12.00;9.57;;;13.50;99.90;;;;;;5050557;28;20041;-76
2023/04/17 01:13:59;;;;;;;10.10;9.05;;;13.50;99.90;;;;;;5049828;28;20041;-76
2023/04/17 01:16:26;;;;;;;11.05;9.13;;;13.50;99.90;;;;;;5051261;28;20029;-76
2023/04/17 01:18:52;;;;;;;13.27;10.02;;;13.40;99.90;;;;;;5049145;28;20037;-76
2023/04/17 01:21:18;;;;;;;10.30;9.20;;;13.40;99.90;;;;;;5015818;28;20041;-76
2023/04/17 01:23:45;;;;;;;11.82;10.05;;;13.40;99.90;;;;;;5050483;28;20033;-76
2023/04/17 01:26:20;;;;;;;9.90;8.90;;;13.40;99.90;;;;;;5037170;28;20487;-76
2023/04/17 01:28:53;;;;;;;13.63;9.27;;;13.00;99.90;;;;;;5050325;28;20484;-76
2023/04/17 01:31:20;;;;;;;10.35;9.20;;;13.00;99.90;;;;;;5049821;28;20033;-76
2023/04/17 01:33:46;;;;;;;10.93;8.95;;;13.00;99.90;;;;;;5032351;28;20067;-76
2023/04/17 01:36:12;;;;;;;12.20;9.32;;;13.00;99.90;;;;;;5050205;28;20044;-76
2023/04/17 01:38:38;;;;;;;9.52;8.63;;;13.00;99.90;;;;;;5050543;28;20044;-76
2023/04/17 01:41:08;;;;;;;12.88;8.73;;;13.10;99.90;;;;;;5050310;28;20037;-76
2023/04/17 01:43:44;;;;;;;11.43;9.48;;;13.00;99.90;;;;;;5047624;28;20033;-76
2023/04/17 01:46:10;;;;;;;10.48;9.38;;;13.00;99.90;;;;;;5013921;28;20488;-76
2023/04/17 01:48:37;;;;;;;12.82;9.43;;;13.00;99.90;;;;;;5044394;28;20040;-76
2023/04/17 01:51:03;;;;;;;12.73;9.43;;;12.90;99.90;;;;;;5053487;28;20033;-76
2023/04/17 01:53:29;;;;;;;12.00;9.95;;;12.90;99.90;;;;;;5034961;28;20498;-76
2023/04/17 01:55:56;;;;;;;14.00;9.50;;;12.90;99.90;;;;;;5039959;28;20040;-76
2023/04/17 01:58:22;;;;;;;14.13;9.95;;;12.90;99.90;;;;;;5053686;28;20033;-76
2023/04/17 02:00:48;;;;;;;11.48;9.80;;;12.90;99.90;;;;;;5052035;28;20036;-76
2023/04/17 02:03:15;;;;;;;13.52;10.52;;;12.90;99.90;;;;;;5049546;28;20040;-75
2023/04/17 02:05:45;;;;;;;16.63;10.27;;;12.90;99.90;;;;;;5051906;28;20040;-76
2023/04/17 02:08:11;;;;;;;13.18;10.10;;;12.80;99.90;;;;;;5050724;28;20033;-76
2023/04/17 02:10:37;;;;;;;10.75;9.65;;;12.70;99.90;;;;;;5047592;28;20040;-77
2023/04/17 02:13:03;;;;;;;14.98;9.40;;;12.70;99.90;;;;;;5043412;28;20025;-76
2023/04/17 02:15:29;;;;;;;11.52;9.63;;;12.70;99.90;;;;;;5050628;28;20040;-76
2023/04/17 02:17:55;;;;;;;12.93;9.98;;;12.70;99.90;;;;;;5038582;28;20040;-75
2023/04/17 02:20:21;;;;;;;11.20;9.93;;;12.60;99.90;;;;;;5032014;28;20033;-76
2023/04/17 02:22:47;;;;;;;13.15;10.25;;;12.60;99.90;;;;;;5031719;28;20065;-76
2023/04/17 02:25:14;;;;;;;12.85;10.95;;;12.60;99.90;;;;;;5051866;28;20033;-75
2023/04/17 02:27:40;;;;;;;12.85;11.13;;;12.50;99.90;;;;;;5035313;28;20033;-76
2023/04/17 02:30:07;;;;;;;13.18;11.45;;;12.50;99.90;;;;;;5051476;28;20033;-76
2023/04/17 02:32:33;;;;;;;18.23;11.25;;;12.40;99.90;;;;;;5052609;28;20380;-75
2023/04/17 02:34:59;;;;;;;14.77;12.02;;;12.20;99.90;;;;;;5051569;28;20037;-76
2023/04/17 02:37:25;;;;;;;18.58;11.93;;;12.00;99.90;;;;;;5053477;28;20040;-76
2023/04/17 02:39:52;;;;;;;12.98;11.13;;;12.00;99.90;;;;;;5052766;28;20029;-75
2023/04/17 02:42:18;;;;;;;13.48;11.73;;;12.10;99.90;;;;;;5052773;28;20032;-76
2023/04/17 02:44:45;;;;;;;14.25;10.70;;;12.20;99.90;;;;;;5045121;28;20040;-76
2023/04/17 02:47:11;;;;;;;14.90;11.18;;;11.90;99.90;;;;;;5048687;28;20430;-75
2023/04/17 02:49:37;;;;;;;13.82;12.35;;;11.60;99.90;;;;;;5053775;28;20029;-76
2023/04/17 02:52:04;;;;;;;12.63;11.15;;;11.60;99.90;;;;;;5052473;28;20045;-76
2023/04/17 02:54:30;;;;;;;13.35;11.95;;;11.50;99.90;;;;;;5053332;28;20459;-76
2023/04/17 02:56:57;;;;;;;13.43;11.10;;;11.50;99.90;;;;;;5051838;28;20035;-75
2023/04/17 02:59:25;;;;;;;14.95;10.82;;;11.60;99.90;;;;;;5051219;28;20025;-76
2023/04/17 03:01:51;;;;;;;17.35;11.30;;;11.70;99.90;;;;;;5051633;28;20037;-76
2023/04/17 03:04:17;;;;;;;14.43;12.15;;;11.80;99.90;;;;;;5052847;28;20028;-75
2023/04/17 03:06:43;;;;;;;15.35;12.38;;;11.70;99.90;;;;;;5053348;28;20029;-76
2023/04/17 03:09:13;;;;;;;14.00;11.88;;;11.70;99.90;;;;;;5053461;28;20036;-76
2023/04/17 03:11:39;;;;;;;19.15;11.23;;;11.60;99.90;;;;;;5047239;28;20021;-76
2023/04/17 03:14:05;;;;;;;14.77;11.75;;;11.60;99.90;;;;;;5048265;28;20040;-75
2023/04/17 03:16:31;;;;;;;12.65;10.80;;;11.50;99.90;;;;;;5032495;28;20034;-74
2023/04/17 03:18:57;;;;;;;13.93;11.68;;;11.40;99.90;;;;;;5015657;28;20045;-75
2023/04/17 03:21:24;;;;;;;17.30;11.65;;;11.30;99.90;;;;;;5033577;28;20380;-76
2023/04/17 03:23:50;;;;;;;14.60;12.35;;;11.30;99.90;;;;;;5050117;28;20058;-76
2023/04/17 03:26:16;;;;;;;16.70;12.40;;;11.40;99.90;;;;;;5051954;28;20467;-76
2023/04/17 03:28:43;;;;;;;16.48;11.82;;;11.30;99.90;;;;;;5034766;28;20029;-76
2023/04/17 03:31:09;;;;;;;15.77;12.30;;;11.40;99.90;;;;;;5031012;28;20480;-76
2023/04/17 03:33:36;;;;;;;14.68;11.77;;;11.50;99.90;;;;;;5050139;28;20104;-75
2023/04/17 03:36:02;;;;;;;14.60;11.65;;;11.40;99.90;;;;;;5050811;28;20041;-75
2023/04/17 03:38:29;;;;;;;12.45;11.15;;;11.40;99.90;;;;;;5034983;28;20085;-75
2023/04/17 03:40:55;;;;;;;15.40;11.98;;;11.40;99.90;;;;;;5051554;28;20029;-76
2023/04/17 03:43:21;;;;;;;21.08;12.68;;;11.20;99.90;;;;;;5031271;28;20033;-76
2023/04/17 03:45:47;;;;;;;14.05;12.65;;;11.00;99.90;;;;;;5039446;28;20495;-75
2023/04/17 03:48:13;;;;;;;14.20;11.25;;;10.70;99.90;;;;;;5051380;28;20040;-76
2023/04/17 03:50:39;;;;;;;19.70;12.38;;;10.70;99.90;;;;;;5050508;28;20494;-76
2023/04/17 03:53:05;;;;;;;12.65;11.35;;;10.70;99.90;;;;;;5050957;28;20049;-76
2023/04/17 03:55:32;;;;;;;14.35;11.95;;;10.60;99.90;;;;;;5034306;28;20502;-76
2023/04/17 03:57:58;;;;;;;14.82;11.57;;;10.60;99.90;;;;;;5051878;28;20044;-75
2023/04/17 04:00:24;;;;;;;18.20;11.32;;;10.50;99.90;;;;;;5033846;28;20040;-75
2023/04/17 04:02:50;;;;;;;13.65;11.63;;;10.40;99.90;;;;;;5034257;28;20029;-76
2023/04/17 04:05:17;;;;;;;15.38;11.25;;;10.40;99.90;;;;;;5051108;28;20391;-75
2023/04/17 04:07:43;;;;;;;13.90;12.10;;;10.50;99.90;;;;;;5034647;28;20037;-76
2023/04/17 04:10:09;;;;;;;13.18;11.82;;;10.50;99.90;;;;;;5033687;28;20395;-75
2023/04/17 04:12:35;;;;;;;16.83;11.85;;;10.50;99.90;;;;;;5050341;28;20063;-76
2023/04/17 04:15:02;;;;;;;16.08;11.48;;;10.60;99.90;;;;;;5034066;28;20036;-75
2023/04/17 04:17:28;;;;;;;15.52;11.43;;;10.50;99.90;;;;;;5050134;28;20048;-75
2023/04/17 04:19:54;;;;;;;14.55;11.88;;;10.50;99.90;;;;;;5033486;28;20033;-76
2023/04/17 04:22:21;;;;;;;16.05;11.75;;;10.30;99.90;;;;;;5040920;28;20033;-75
2023/04/17 04:24:47;;;;;;;17.52;12.15;;;10.20;99.90;;;;;;5052182;28;20021;-76
2023/04/17 04:27:16;;;;;;;18.13;11.82;;;10.20;99.90;;;;;;5033906;28;20496;-75
2023/04/17 04:29:44;;;;;;;14.05;12.05;;;10.00;99.90;;;;;;5052174;28;20032;-75
2023/04/17 04:32:14;;;;;;;19.67;12.07;;;10.00;99.90;;;;;;5048511;28;20021;-75
2023/04/17 04:34:43;;;;;;;18.95;12.52;;;10.20;99.90;;;;;;5050368;28;20025;-75
2023/04/17 04:37:14;;;;;;;17.55;11.90;;;10.30;99.90;;;;;;5034599;28;20029;-75
2023/04/17 04:39:40;;;;;;;14.73;12.60;;;10.20;99.90;;;;;;5052129;28;20056;-76
2023/04/17 04:42:08;;;;;;;19.45;12.30;;;10.20;99.90;;;;;;5049043;28;20037;-75
2023/04/17 04:44:36;;;;;;;16.35;12.32;;;10.00;99.90;;;;;;5049740;28;20048;-75
2023/04/17 04:47:02;;;;;;;20.05;11.98;;;10.10;99.90;;;;;;5050207;28;20041;-77
2023/04/17 04:49:28;;;;;;;14.50;12.18;;;10.20;99.90;;;;;;5051898;28;20047;-75
2023/04/17 04:51:54;;;;;;;15.80;12.05;;;10.20;99.90;;;;;;5049651;28;20053;-75
2023/04/17 04:54:20;;;;;;;19.33;12.82;;;10.20;99.90;;;;;;5030751;28;20030;-75
2023/04/17 04:56:46;;;;;;;16.08;12.63;;;10.30;99.90;;;;;;5041615;28;20025;-75
2023/04/17 04:59:12;;;;;;;14.30;12.75;;;10.30;99.90;;;;;;5048103;28;20040;-74
2023/04/17 05:01:38;;;;;;;13.32;11.75;;;10.40;99.90;;;;;;5049713;28;20040;-75
2023/04/17 05:04:04;;;;;;;17.48;12.65;;;10.40;99.90;;;;;;5046237;28;20036;-75
2023/04/17 05:06:30;;;;;;;17.40;12.57;;;10.30;99.90;;;;;;5033655;28;20041;-75
2023/04/17 05:08:57;;;;;;;14.45;12.32;;;10.10;99.90;;;;;;5046933;28;20040;-75
2023/04/17 05:11:23;;;;;;;18.70;13.18;;;10.20;99.90;;;;;;5047226;28;20033;-77
2023/04/17 05:13:49;;;;;;;22.35;13.20;;;10.20;99.90;;;;;;5044699;28;20052;-76
2023/04/17 05:16:15;;;;;;;16.38;12.48;;;10.10;99.90;;;;;;5044302;28;20036;-75
2023/04/17 05:18:42;;;;;;;15.43;12.32;;;10.10;99.90;;;;;;5047555;28;20033;-75
2023/04/17 05:21:09;;;;;;;21.27;12.32;;;10.00;99.90;;;;;;5050748;28;20032;-75
2023/04/17 05:23:35;;;;;;;14.30;12.77;;;10.00;99.90;;;;;;5055464;28;20044;-75
2023/04/17 05:26:01;;;;;;;16.08;12.27;;;9.90;99.90;;;;;;5054188;28;20029;-75
2023/04/17 05:28:28;;;;;;;17.63;12.82;;;9.70;99.90;;;;;;5055253;28;20045;-75
2023/04/17 05:30:54;;;;;;;20.08;13.63;;;9.60;99.90;;;;;;5051980;28;20037;-76
2023/04/17 05:33:20;;;;;;;16.27;12.35;;;9.50;99.90;;;;;;5045072;28;20033;-75
2023/04/17 05:35:46;;;;;;;18.15;13.73;;;9.50;99.90;;;;;;5043567;28;20048;-75
2023/04/17 05:38:13;;;;;;;16.42;12.57;;;9.60;99.90;;;;;;5053571;28;20479;-75
2023/04/17 05:40:39;;;;;;;17.15;12.20;;;9.70;99.90;;;;;;5053703;28;20025;-75
2023/04/17 05:43:08;;;;;;;17.30;12.98;;;9.60;99.90;;;;;;5053746;28;20036;-75
2023/04/17 05:45:35;;;;;;;22.90;13.02;;;9.50;99.90;;;;;;5052436;28;20483;-75
2023/04/17 05:48:01;;;;;;;17.25;13.02;;;9.50;99.90;;;;;;5053761;28;20395;-75
2023/04/17 05:50:27;;;;;;;17.27;12.35;;;9.50;99.90;;;;;;5052314;28;20029;-75
2023/04/17 05:52:53;;;;;;;16.13;13.32;;;9.70;99.90;;;;;;5036833;28;20057;-75
2023/04/17 05:55:20;;;;;;;14.18;12.43;;;9.70;99.90;;;;;;5053882;28;20059;-75
2023/04/17 05:57:47;;;;;;;16.10;13.18;;;9.70;99.90;;;;;;5053134;28;20041;-75
2023/04/17 06:00:14;;;;;;;19.05;12.95;;;9.80;99.90;;;;;;5052538;28;20033;-75
2023/04/17 06:02:41;;;;;;;14.88;12.95;;;9.80;99.90;;;;;;5060967;28;20456;-75
2023/04/17 06:05:07;;;;;;;17.98;12.77;;;9.90;99.90;;;;;;5036605;28;20388;-75
2023/04/17 06:07:34;;;;;;;16.38;12.88;;;9.80;99.90;;;;;;5051892;28;20041;-75
2023/04/17 06:10:01;;;;;;;18.67;12.52;;;9.90;99.90;;;;;;5053993;28;20033;-75
2023/04/17 06:12:27;;;;;;;18.95;12.68;;;10.10;99.90;;;;;;5035996;28;20056;-75
2023/04/17 06:14:53;;;;;;;17.02;11.45;;;10.20;99.90;;;;;;5053474;28;20044;-76
2023/04/17 06:17:20;;;;;;;13.30;11.52;;;10.30;99.90;;;;;;5026648;28;20384;-75
2023/04/17 06:19:46;;;;;;;14.38;11.90;;;10.20;99.90;;;;;;5053380;28;20036;-75
2023/04/17 06:22:12;;;;;;;16.05;12.43;;;10.40;99.90;;;;;;5054152;28;20463;-75
2023/04/17 06:24:38;;;;;;;15.07;11.50;;;10.50;99.90;;;;;;5051990;28;20112;-75
2023/04/17 06:27:04;;;;;;;20.10;12.20;;;10.60;99.90;;;;;;5034158;28;20435;-75
2023/04/17 06:29:30;;;;;;;14.65;11.80;;;10.70;99.90;;;;;;5053650;28;20037;-75
2023/04/17 06:31:56;;;;;;;14.30;11.98;;;10.90;99.90;;;;;;5053252;28;20037;-75
2023/04/17 06:34:22;;;;;;;15.02;11.80;;;10.90;99.90;;;;;;5052887;28;20031;-76
2023/04/17 06:36:48;;;;;;;13.27;11.25;;;11.00;99.90;;;;;;5047874;28;20029;-75
2023/04/17 06:39:14;;;;;;;16.50;10.25;;;10.90;99.90;;;;;;5053653;28;20376;-74
2023/04/17 06:41:41;;;;;;;11.27;9.82;;;10.90;99.90;;;;;;5052623;28;20028;-75
2023/04/17 06:44:07;;;;;;;15.02;10.35;;;10.80;99.90;;;;;;5053852;28;20025;-75
2023/04/17 06:46:33;;;;;;;14.88;10.13;;;10.70;99.90;;;;;;5052360;28;20045;-74
2023/04/17 06:48:59;;;;;;;15.90;10.00;;;10.70;99.90;;;;;;5053757;28;20049;-75
2023/04/17 06:51:26;;;;;;;15.70;10.68;;;10.60;99.90;;;;;;5035810;28;20048;-75
2023/04/17 06:53:52;;;;;;;13.02;10.73;;;10.60;99.90;;;;;;5052311;28;20036;-74
2023/04/17 06:56:19;;;;;;;13.48;9.98;;;10.70;99.90;;;;;;5050702;28;20356;-75
2023/04/17 06:58:46;;;;;;;13.77;10.43;;;10.60;99.90;;;;;;5052162;28;20048;-75
2023/04/17 07:01:12;;;;;;;15.65;9.30;;;10.50;99.90;;;;;;5034806;28;20033;-73
2023/04/17 07:03:39;;;;;;;14.05;10.57;;;10.40;99.90;;;;;;5053462;28;20383;-75
2023/04/17 07:06:05;;;;;;;13.65;10.88;;;10.40;99.90;;;;;;5035485;28;20380;-75
2023/04/17 07:08:31;;;;;;;16.73;11.50;;;10.40;99.90;;;;;;5031470;28;20049;-75
2023/04/17 07:10:57;;;;;;;16.42;10.45;;;10.60;99.90;;;;;;5038204;28;20403;-75
2023/04/17 07:13:23;;;;;;;13.73;10.88;;;10.70;99.90;;;;;;5050406;28;20036;-75
2023/04/17 07:15:53;;;;;;;14.57;10.27;;;10.80;99.90;;;;;;5051930;28;20040;-75
2023/04/17 07:18:20;;;;;;;15.68;10.75;;;10.90;99.90;;;;;;5034186;28;20052;-74
2023/04/17 07:20:47;;;;;;;14.57;9.93;;;11.20;99.90;;;;;;5051662;28;20020;-75
2023/04/17 07:23:13;;;;;;;14.68;10.90;;;11.20;99.90;;;;;;5050364;28;20025;-75
2023/04/17 07:25:39;;;;;;;12.57;9.45;;;11.20;99.90;;;;;;5035442;28;20039;-75
2023/04/17 07:28:05;;;;;;;14.38;9.38;;;11.30;99.90;;;;;;5051415;28;20045;-75
2023/04/17 07:30:31;;;;;;;16.38;10.27;;;11.10;99.90;;;;;;5051369;28;20059;-75
2023/04/17 07:32:58;;;;;;;12.98;10.27;;;11.00;99.90;;;;;;5052945;28;20464;-75
2023/04/17 07:35:24;;;;;;;15.93;10.90;;;11.00;99.90;;;;;;5050014;28;20040;-75
2023/04/17 07:37:50;;;;;;;13.32;10.63;;;11.10;99.90;;;;;;5050006;28;20040;-75
2023/04/17 07:40:16;;;;;;;13.05;10.90;;;11.00;99.90;;;;;;5049820;28;20704;-75
2023/04/17 07:42:42;;;;;;;17.13;10.70;;;11.00;99.90;;;;;;5050323;28;20040;-80
2023/04/17 07:45:09;;;;;;;11.55;10.35;;;11.10;99.90;;;;;;5051772;28;20037;-75
2023/04/17 07:47:35;;;;;;;10.73;9.07;;;11.20;99.90;;;;;;5051000;28;20041;-76
2023/04/17 07:50:02;;;;;;;15.50;9.50;;;11.20;99.90;;;;;;5049793;28;20083;-75
2023/04/17 07:52:28;;;;;;;14.48;9.63;;;11.20;99.90;;;;;;5052358;28;20044;-76
2023/04/17 07:54:57;;;;;;;14.52;9.27;;;11.10;99.90;;;;;;5051460;28;20361;-76
2023/04/17 07:57:26;;;;;;;11.82;9.43;;;11.10;99.90;;;;;;5052131;28;20044;-76
2023/04/17 07:59:52;;;;;;;11.48;8.25;;;11.10;99.90;;;;;;5051973;28;20024;-75
2023/04/17 08:02:18;;;;;;;12.88;9.35;;;11.20;99.90;;;;;;5051875;28;20043;-75
2023/04/17 08:04:45;;;;;;;13.20;9.65;;;11.30;99.90;;;;;;5051808;28;20033;-76
2023/04/17 08:07:11;;;;;;;12.02;8.88;;;11.40;99.90;;;;;;5043287;28;20392;-75
2023/04/17 08:09:38;;;;;;;10.23;7.68;;;11.50;99.90;;;;;;5034309;28;20036;-76
2023/04/17 08:12:04;;;;;;;14.50;9.85;;;11.50;99.90;;;;;;5050951;28;20044;-76
2023/04/17 08:14:31;;;;;;;11.90;9.60;;;11.50;99.90;;;;;;5048851;28;20463;-78
2023/04/17 08:16:57;;;;;;;11.80;9.18;;;11.50;99.90;;;;;;5049789;28;20045;-76
2023/04/17 08:19:23;;;;;;;14.05;9.32;;;11.60;99.90;;;;;;5049053;28;20037;-76
2023/04/17 08:21:49;;;;;;;11.82;9.15;;;11.80;99.90;;;;;;5051752;28;20036;-76
2023/04/17 08:24:16;;;;;;;13.23;9.27;;;12.00;99.90;;;;;;5050884;28;20029;-76
2023/04/17 08:26:42;;;;;;;10.55;8.80;;;12.00;99.90;;;;;;5052084;28;20383;-76
2023/04/17 08:29:08;;;;;;;12.07;9.68;;;12.00;99.90;;;;;;5048863;28;20476;-76
2023/04/17 08:31:39;;;;;;;13.32;9.50;;;12.20;99.90;;;;;;5065221;28;20033;-76
2023/04/17 08:34:05;;;;;;;10.50;8.88;;;12.50;99.90;;;;;;5046173;28;20028;-76
2023/04/17 08:36:31;;;;;;;15.18;9.73;;;12.80;99.90;;;;;;5037517;28;20036;-76
2023/04/17 08:38:57;;;;;;;14.48;8.45;;;13.10;99.90;;;;;;5051771;28;20029;-77
2023/04/17 08:41:26;;;;;;;10.40;8.55;;;13.30;99.90;;;;;;5051252;28;20028;-76
2023/04/17 08:43:52;;;;;;;16.58;8.38;;;13.40;99.90;;;;;;5034227;28;20040;-75
2023/04/17 08:46:23;;;;;;;12.38;8.57;;;13.60;99.90;;;;;;5050176;28;20487;-76
2023/04/17 08:48:50;;;;;;;13.52;9.07;;;13.80;99.90;;;;;;5066477;28;20045;-77
2023/04/17 08:51:16;;;;;;;11.65;8.20;;;14.00;99.90;;;;;;5033893;28;20037;-75
2023/04/17 08:53:42;;;;;;;9.70;8.27;;;14.10;99.90;;;;;;5044728;28;20033;-75
2023/04/17 08:56:08;;;;;;;12.23;8.18;;;14.10;99.90;;;;;;5037325;28;20034;-76
2023/04/17 08:58:34;;;;;;;11.02;8.15;;;14.20;99.90;;;;;;5045953;28;20037;-76
2023/04/17 09:01:09;;;;;;;10.15;8.10;;;14.30;99.90;;;;;;5054403;28;20041;-76
2023/04/17 09:03:42;;;;;;;13.07;8.10;;;14.40;99.90;;;;;;5033604;28;20041;-76
2023/04/17 09:06:09;;;;;;;10.82;7.93;;;14.40;99.90;;;;;;5032972;28;20036;-76
2023/04/17 09:08:39;;;;;;;8.25;7.30;;;14.40;99.90;;;;;;5051738;28;20395;-76
2023/04/17 09:11:15;;;;;;;8.93;7.53;;;14.60;99.90;;;;;;5028310;28;20101;-75
2023/04/17 09:13:41;;;;;;;9.10;7.30;;;14.70;99.90;;;;;;5030644;28;20045;-76
2023/04/17 09:16:20;;;;;;;8.52;6.40;;;14.70;99.90;;;;;;5053672;28;20041;-76
2023/04/17 09:18:46;;;;;;;9.65;6.10;;;15.10;99.90;;;;;;5054081;28;20395;-75
2023/04/17 09:21:15;;;;;;;8.45;6.10;;;15.30;99.90;;;;;;5053742;28;20032;-74
2023/04/17 09:23:54;;;;;;;8.63;6.78;;;15.40;99.90;;;;;;5036924;28;20480;-70
2023/04/17 09:26:30;;;;;;;9.57;6.85;;;15.50;99.90;;;;;;5072184;28;20492;-75
2023/04/17 09:29:13;;;;;;;8.52;6.30;;;15.40;99.90;;;;;;5051452;28;20041;-76
2023/04/17 09:31:40;;;;;;;7.47;6.30;;;15.70;99.90;;;;;;5052863;28;20032;-75
2023/04/17 09:34:11;;;;;;;10.45;6.80;;;15.60;99.90;;;;;;5035147;28;20056;-75
2023/04/17 09:36:42;;;;;;;8.77;6.50;;;15.40;99.90;;;;;;5035466;28;20056;-74
2023/04/17 09:39:19;;;;;;;7.43;6.37;;;15.40;99.90;;;;;;5022240;28;20044;-75
2023/04/17 09:41:45;;;;;;;5.85;5.03;;;15.60;99.90;;;;;;5053151;28;20025;-74
2023/04/17 09:44:14;;;;;;;8.30;6.82;;;15.80;99.90;;;;;;5053713;28;20043;-75
2023/04/17 09:46:44;;;;;;;8.05;7.13;;;15.60;99.90;;;;;;5049403;28;20113;-75
2023/04/17 09:49:32;;;;;;;9.30;7.00;;;15.80;99.90;;;;;;5041603;28;20045;-75
2023/04/17 09:51:59;;;;;;;6.75;6.00;;;16.10;99.90;;;;;;5048366;28;20049;-75
2023/04/17 09:54:25;;;;;;;7.10;6.50;;;16.10;99.90;;;;;;5045907;28;20501;-75
2023/04/17 09:56:54;;;;;;;6.90;6.30;;;16.00;99.90;;;;;;5013537;28;20041;-75
2023/04/17 09:59:22;;;;;;;7.30;6.63;;;16.10;99.90;;;;;;5017537;28;20045;-75
2023/04/17 10:01:49;;;;;;;7.13;6.25;;;16.20;99.90;;;;;;5026871;28;20029;-75
2023/04/17 10:04:15;;;;;;;9.70;6.75;;;16.00;99.90;;;;;;5036863;28;20036;-75
2023/04/17 10:06:41;;;;;;;8.82;6.88;;;16.30;99.90;;;;;;5048764;28;20492;-75
2023/04/17 10:09:07;;;;;;;7.22;6.53;;;16.40;99.90;;;;;;5048709;28;20052;-75
2023/04/17 10:11:37;;;;;;;6.82;6.22;;;16.60;99.90;;;;;;5053169;28;20052;-75
2023/04/17 10:14:10;;;;;;;7.53;6.30;;;16.60;99.90;;;;;;5053521;28;20036;-74
2023/04/17 10:16:37;;;;;;;8.60;6.47;;;16.80;99.90;;;;;;5052303;28;20029;-75
2023/04/17 10:19:32;;;;;;;7.22;6.50;;;16.80;99.90;;;;;;5054037;28;20036;-75
2023/04/17 10:22:19;;;;;;;6.78;6.13;;;16.80;99.90;;;;;;5039145;28;20025;-75
2023/04/17 10:24:46;;;;;;;7.03;6.43;;;16.60;99.90;;;;;;5053491;28;20040;-75
2023/04/17 10:27:25;;;;;;;12.60;5.65;;;16.40;99.90;;;;;;5053271;28;20025;-75
2023/04/17 10:29:54;;;;;;;7.15;6.45;;;16.50;99.90;;;;;;5053843;28;20037;-75
2023/04/17 10:32:30;;;;;;;7.20;6.57;;;16.50;99.90;;;;;;5032355;28;20034;-75
2023/04/17 10:35:00;;;;;;;7.47;6.78;;;16.50;99.90;;;;;;5020005;28;20493;-75
2023/04/17 10:37:52;;;;;;;6.93;6.43;;;16.60;99.90;;;;;;5026427;28;20025;-75
2023/04/17 10:40:22;;;;;;;7.53;6.55;;;16.90;99.80;;;;;;5054181;28;20025;-75
2023/04/17 10:43:19;;;;;;;6.80;6.20;;;17.00;99.90;;;;;;5052806;28;20036;-75
2023/04/17 10:46:09;;;;;;;7.07;6.53;;;17.00;98.70;;;;;;5049583;28;20032;-75
2023/04/17 10:48:50;;;;;;;7.25;6.55;;;16.90;98.60;;;;;;5050178;28;20052;-75
2023/04/17 10:51:23;;;;;;;6.88;6.28;;;16.80;99.10;;;;;;5031895;28;20072;-76
2023/04/17 10:54:12;;;;;;;6.93;6.43;;;16.80;98.70;;;;;;5033818;28;20026;-75
2023/04/17 10:56:39;;;;;;;7.53;6.32;;;17.10;99.00;;;;;;5017445;28;20041;-76
2023/04/17 10:59:12;;;;;;;7.18;6.47;;;17.20;98.50;;;;;;5051292;28;20032;-75
2023/04/17 11:01:47;;;;;;;7.32;6.63;;;17.00;97.50;;;;;;5051501;28;20029;-75
2023/04/17 11:04:22;;;;;;;11.32;6.90;;;16.80;97.50;;;;;;5052980;28;20052;-75
2023/04/17 11:06:48;;;;;;;7.13;6.53;;;17.00;98.00;;;;;;5047812;28;20029;-75
2023/04/17 11:09:14;;;;;;;6.65;6.03;;;17.10;97.90;;;;;;5038986;28;20452;-75
2023/04/17 11:11:41;;;;;;;7.07;6.47;;;16.90;98.50;;;;;;5046133;28;20036;-75
2023/04/17 11:14:12;;;;;;;6.80;6.40;;;17.00;99.30;;;;;;5051708;28;20357;-75
2023/04/17 11:16:40;;;;;;;7.72;6.85;;;17.20;96.80;;;;;;5051012;28;20033;-75
2023/04/17 11:19:11;;;;;;;6.93;6.43;;;17.20;97.30;;;;;;5050515;28;20029;-75
2023/04/17 11:21:39;;;;;;;7.53;6.88;;;17.00;96.00;;;;;;5051648;28;20029;-75
2023/04/17 11:24:05;;;;;;;8.05;6.75;;;17.00;95.70;;;;;;5019195;28;20369;-75
2023/04/17 11:26:31;;;;;;;6.85;6.45;;;17.10;95.40;;;;;;5053687;28;20040;-75
2023/04/17 11:28:58;;;;;;;7.82;7.00;;;16.90;95.10;;;;;;5051419;28;20045;-75
2023/04/17 11:31:25;;;;;;;6.78;6.28;;;17.00;95.40;;;;;;5050330;28;20400;-75
2023/04/17 11:33:51;;;;;;;7.60;7.00;;;17.00;95.70;;;;;;5052211;28;20033;-75
2023/04/17 11:36:17;;;;;;;7.43;6.65;;;17.20;95.70;;;;;;5051538;28;20029;-75
2023/04/17 11:38:47;;;;;;;7.10;6.40;;;17.40;94.60;;;;;;5051823;28;20040;-75
2023/04/17 11:41:13;;;;;;;7.38;6.70;;;17.40;94.10;;;;;;5051771;28;20033;-75
2023/04/17 11:43:39;;;;;;;7.65;7.05;;;17.20;93.10;;;;;;5030284;28;20033;-75
2023/04/17 11:46:05;;;;;;;8.27;7.47;;;17.30;92.40;;;;;;5040720;28;20060;-75
2023/04/17 11:48:31;;;;;;;7.72;7.22;;;17.60;93.10;;;;;;5051488;28;20041;-75
2023/04/17 11:51:02;;;;;;;6.90;6.50;;;17.60;92.40;;;;;;5052505;28;20040;-74
2023/04/17 11:53:29;;;;;;;7.82;7.13;;;17.40;91.30;;;;;;5050805;28;20029;-75
2023/04/17 11:56:14;;;;;;;7.63;7.13;;;17.40;90.40;;;;;;5034815;28;20032;-75
2023/04/17 11:58:52;;;;;;;8.30;7.50;;;17.50;90.30;;;;;;5051567;28;20498;-75
2023/04/17 12:01:19;;;;;;;7.72;7.22;;;17.70;91.30;;;;;;5049425;28;20025;-76
2023/04/17 12:03:49;;;;;;;8.25;7.85;;;17.80;88.60;;;;;;5050991;28;20484;-74
2023/04/17 12:06:15;;;;;;;7.90;7.50;;;17.70;88.90;;;;;;5050983;28;20029;-75
2023/04/17 12:08:50;;;;;;;8.90;8.30;;;17.70;86.40;;;;;;5031928;28;20411;-75
2023/04/17 12:11:23;;;;;;;8.75;8.25;;;17.90;87.70;;;;;;5040074;28;20033;-75
2023/04/17 12:13:53;;;;;;;9.43;8.82;;;18.10;81.20;;;;;;5051964;28;20507;-75
2023/04/17 12:16:19;;;;;;;8.73;8.02;;;18.00;83.40;;;;;;5030612;28;20033;-75
2023/04/17 12:18:45;;;;;;;8.90;8.40;;;17.80;84.60;;;;;;5051662;28;20033;-76
2023/04/17 12:21:12;;;;;;;9.10;8.38;;;18.00;85.10;;;;;;5034616;28;20028;-75
2023/04/17 12:23:39;;;;;;;9.70;8.70;;;18.10;84.70;;;;;;5050073;28;20033;-75
2023/04/17 12:26:05;;;;;;;8.70;8.20;;;18.40;85.90;;;;;;5033707;28;20033;-75
2023/04/17 12:28:31;;;;;;;12.15;8.98;;;18.20;84.20;;;;;;5051575;28;20579;-75
2023/04/17 12:30:57;;;;;;;7.75;7.25;;;18.00;86.20;;;;;;5050183;28;20483;-75
2023/04/17 12:33:23;;;;;;;9.35;8.65;;;18.00;90.20;;;;;;5050894;28;20025;-75
2023/04/17 12:35:50;;;;;;;8.98;8.48;;;18.20;87.50;;;;;;5050921;28;20021;-75
2023/04/17 12:38:16;;;;;;;9.30;8.32;;;18.20;86.90;;;;;;5052185;28;20029;-75